Kezdőlap
METAR-TAF:

METAR-TAF

Repülőterek :

Dakar, Szenegál

földrajzi szélesség: 14-44N, földrajzi hosszúság: 017-30W, magasság: 27 m

Jelenlegi meteorológiai megfigyelések

A jelentés 55 perccel ezelõtt készült, 22:00 UTC
Északi szél 6 kt
Hőmérséklet 20°C
Páratartalom 83%
Légköri nyomás 1013 hPa
Látótávolság: 8000 m

METAR: GOOY 242200Z 36006KT 8000 NSC 20/17 Q1013

Idő: 22:55 (22:55 UTC)

Előrejelzés

A jelentés 5 órával és 25 perccel ezelõtt készült, 17:30 UTC
Az előrejelzés 24-én 18 óra UTC és 25-én 24 óra UTC között érvényes
Északi szél 13 kt
Látótávolság 10 km, vagy több
felhőtlen 1500 m magasságban, és nincs gomolyfelhõ

TAF: GOOY 241730Z 2418/2524 35013KT CAVOK

Meteorológiai megfigyelések és előrejelzések több, mint 4000 repülőtéren (METAR és TAF jelentéseket).

A térképen piros és sárga pontok jelzik az elérhető meteorológiai állomásokat.

Mozgassa az egeret a pont fölött, hogy megjelenjen az állomás neve.

Azután kattintson az időjárási megfigyelések és előrejelzések megtekintéséhez.

A térkép megváltoztatása: kattintson a fekete keresztel jelölt zöld gombra ráközelítéshez, a vonallal jelölt zöld gombra távolításhoz, vagy a zöld nyilakra a szomszédos térképek eléréséhez.


METAR-TAF: